IPLMD LIEO-LEMH
Flight info
| Callsign | IPLMD |
|---|---|
| Flight time | 1h 19m |
| Altitude | 29000 |
| Route | SUTAD DCT GOKMI DCT SUPUX Z924 KUPIM DCT SUXER Z924 RIPAL M603 MORSS |
| Aircraft | TBM8/L-SDFGRWY/S |
Departure
| Time | 2026-04-22 03:45 |
|---|---|
| Airport | Olbia Costa Smeralda Airport (LIEO) |
Arrival
| Time | 2026-04-22 05:04 |
|---|---|
| Airport | Menorca Airport (LEMH) |
| Time | Latitude | Longitude | Altitude | Speed | Heading |
|---|---|---|---|---|---|
| 2026-04-22 03:21 | 40.89536 | 9.50566 | 40 ft | 0 kts | 55° |
| 2026-04-22 03:24 | 40.89531 | 9.50556 | 40 ft | 2 kts | 54° |
| 2026-04-22 03:24 | 40.89523 | 9.50541 | 40 ft | 1 kts | 54° |
| 2026-04-22 03:40 | 40.89528 | 9.50546 | 40 ft | 4 kts | 22° |
| 2026-04-22 03:40 | 40.89537 | 9.50516 | 40 ft | 4 kts | 234° |
| 2026-04-22 03:40 | 40.89527 | 9.50501 | 40 ft | 0 kts | 227° |
| 2026-04-22 03:40 | 40.89519 | 9.50487 | 40 ft | 6 kts | 237° |
| 2026-04-22 03:41 | 40.89489 | 9.50464 | 40 ft | 4 kts | 171° |
| 2026-04-22 03:41 | 40.89472 | 9.50480 | 40 ft | 3 kts | 143° |
| 2026-04-22 03:41 | 40.89445 | 9.50486 | 40 ft | 6 kts | 178° |
| 2026-04-22 03:41 | 40.89402 | 9.50479 | 40 ft | 6 kts | 221° |
| 2026-04-22 03:42 | 40.89385 | 9.50440 | 41 ft | 6 kts | 251° |
| 2026-04-22 03:42 | 40.89355 | 9.50397 | 41 ft | 6 kts | 155° |
| 2026-04-22 03:42 | 40.89333 | 9.50421 | 41 ft | 2 kts | 141° |
| 2026-04-22 03:42 | 40.89328 | 9.50425 | 41 ft | 2 kts | 142° |
| 2026-04-22 03:43 | 40.89306 | 9.50448 | 41 ft | 4 kts | 141° |
| 2026-04-22 03:43 | 40.89284 | 9.50487 | 41 ft | 7 kts | 109° |
| 2026-04-22 03:43 | 40.89279 | 9.50559 | 42 ft | 7 kts | 97° |
| 2026-04-22 03:43 | 40.89273 | 9.50616 | 41 ft | 6 kts | 96° |
| 2026-04-22 03:44 | 40.89284 | 9.50654 | 41 ft | 0 kts | 59° |
| 2026-04-22 03:44 | 40.89377 | 9.50829 | 38 ft | 52 kts | 55° |
| 2026-04-22 03:44 | 40.89689 | 9.51426 | 44 ft | 103 kts | 56° |
| 2026-04-22 03:45 | 40.89981 | 9.51957 | 206 ft | 112 kts | 57° |
| 2026-04-22 03:45 | 40.90579 | 9.53168 | 638 ft | 130 kts | 62° |
| 2026-04-22 03:45 | 40.91048 | 9.54273 | 1093 ft | 133 kts | 57° |
| 2026-04-22 03:45 | 40.91648 | 9.55206 | 1554 ft | 145 kts | 52° |
| 2026-04-22 03:46 | 40.92199 | 9.56448 | 1794 ft | 165 kts | 65° |
| 2026-04-22 03:46 | 40.92797 | 9.57543 | 2687 ft | 138 kts | 49° |
| 2026-04-22 03:46 | 40.93410 | 9.58580 | 3130 ft | 148 kts | 54° |
| 2026-04-22 03:46 | 40.94029 | 9.59729 | 3577 ft | 155 kts | 56° |
| 2026-04-22 03:47 | 40.94638 | 9.60875 | 4174 ft | 150 kts | 50° |
| 2026-04-22 03:47 | 40.95280 | 9.62006 | 4626 ft | 158 kts | 51° |
| 2026-04-22 03:47 | 40.95929 | 9.63199 | 5136 ft | 159 kts | 51° |
| 2026-04-22 03:47 | 40.96512 | 9.64433 | 5672 ft | 159 kts | 55° |
| 2026-04-22 03:48 | 40.97135 | 9.65666 | 6112 ft | 163 kts | 47° |
| 2026-04-22 03:48 | 40.97749 | 9.66912 | 6683 ft | 160 kts | 62° |
| 2026-04-22 03:48 | 40.97907 | 9.68380 | 7108 ft | 174 kts | 92° |
| 2026-04-22 03:48 | 40.97443 | 9.70019 | 7139 ft | 206 kts | 131° |
| 2026-04-22 03:49 | 40.96305 | 9.71004 | 7849 ft | 180 kts | 160° |
| 2026-04-22 03:49 | 40.95237 | 9.71727 | 8531 ft | 172 kts | 155° |
| 2026-04-22 03:49 | 40.94154 | 9.72584 | 8757 ft | 191 kts | 152° |
| 2026-04-22 03:49 | 40.93047 | 9.73555 | 9180 ft | 196 kts | 145° |
| 2026-04-22 03:50 | 40.91879 | 9.74701 | 9095 ft | 226 kts | 145° |
| 2026-04-22 03:50 | 40.90584 | 9.75953 | 9470 ft | 223 kts | 145° |
| 2026-04-22 03:50 | 40.89397 | 9.77142 | 10194 ft | 206 kts | 143° |
| 2026-04-22 03:50 | 40.88309 | 9.78267 | 10831 ft | 192 kts | 143° |
| 2026-04-22 03:51 | 40.87284 | 9.79314 | 11395 ft | 182 kts | 144° |
| 2026-04-22 03:51 | 40.86274 | 9.80322 | 11825 ft | 182 kts | 146° |
| 2026-04-22 03:51 | 40.85244 | 9.81325 | 12170 ft | 187 kts | 147° |
| 2026-04-22 03:51 | 40.84180 | 9.82343 | 12562 ft | 189 kts | 147° |
| 2026-04-22 03:52 | 40.83091 | 9.83325 | 12965 ft | 188 kts | 158° |
| 2026-04-22 03:52 | 40.81859 | 9.83717 | 13352 ft | 179 kts | 188° |
| 2026-04-22 03:52 | 40.81075 | 9.83499 | 13594 ft | 170 kts | 212° |
| 2026-04-22 03:52 | 40.79975 | 9.82904 | 13984 ft | 176 kts | 203° |
| 2026-04-22 03:53 | 40.78749 | 9.82582 | 14314 ft | 182 kts | 198° |
| 2026-04-22 03:53 | 40.77504 | 9.82277 | 14672 ft | 182 kts | 199° |
| 2026-04-22 03:53 | 40.76263 | 9.81927 | 15035 ft | 183 kts | 201° |
| 2026-04-22 03:53 | 40.75022 | 9.81545 | 15392 ft | 184 kts | 201° |
| 2026-04-22 03:54 | 40.73773 | 9.81140 | 15752 ft | 185 kts | 202° |
| 2026-04-22 03:54 | 40.72522 | 9.80727 | 16115 ft | 186 kts | 202° |
| 2026-04-22 03:54 | 40.71263 | 9.80307 | 16467 ft | 187 kts | 202° |
| 2026-04-22 03:54 | 40.69996 | 9.79882 | 16823 ft | 188 kts | 202° |
| 2026-04-22 03:55 | 40.68736 | 9.79460 | 17174 ft | 190 kts | 202° |
| 2026-04-22 03:55 | 40.67454 | 9.79030 | 17532 ft | 191 kts | 202° |
| 2026-04-22 03:55 | 40.66161 | 9.78595 | 17888 ft | 192 kts | 202° |
| 2026-04-22 03:55 | 40.64859 | 9.78158 | 18237 ft | 194 kts | 202° |
| 2026-04-22 03:56 | 40.63549 | 9.77719 | 18541 ft | 195 kts | 202° |
| 2026-04-22 03:56 | 40.62233 | 9.77278 | 18847 ft | 196 kts | 202° |
| 2026-04-22 03:56 | 40.60910 | 9.76834 | 19154 ft | 196 kts | 202° |
| 2026-04-22 03:56 | 40.59654 | 9.76220 | 19441 ft | 188 kts | 221° |
| 2026-04-22 03:57 | 40.58808 | 9.75026 | 19736 ft | 174 kts | 249° |
| 2026-04-22 03:57 | 40.58153 | 9.73670 | 20058 ft | 179 kts | 239° |
| 2026-04-22 03:57 | 40.57331 | 9.72420 | 20355 ft | 181 kts | 236° |
| 2026-04-22 03:57 | 40.56508 | 9.71162 | 20658 ft | 182 kts | 238° |
| 2026-04-22 03:58 | 40.55705 | 9.69879 | 20964 ft | 182 kts | 238° |
| 2026-04-22 03:58 | 40.54912 | 9.68576 | 21269 ft | 183 kts | 239° |
| 2026-04-22 03:58 | 40.54125 | 9.67263 | 21572 ft | 183 kts | 239° |
| 2026-04-22 03:58 | 40.53338 | 9.65938 | 21872 ft | 184 kts | 239° |
| 2026-04-22 03:59 | 40.52559 | 9.64626 | 22161 ft | 185 kts | 239° |
| 2026-04-22 03:59 | 40.51766 | 9.63289 | 22455 ft | 186 kts | 239° |
| 2026-04-22 03:59 | 40.50958 | 9.61926 | 22731 ft | 187 kts | 239° |
| 2026-04-22 03:59 | 40.50157 | 9.60579 | 22981 ft | 188 kts | 239° |
| 2026-04-22 04:00 | 40.49465 | 9.59152 | 23244 ft | 182 kts | 256° |
| 2026-04-22 04:00 | 40.49383 | 9.57573 | 23480 ft | 176 kts | 284° |
| 2026-04-22 04:00 | 40.49614 | 9.55993 | 23735 ft | 177 kts | 276° |
| 2026-04-22 04:00 | 40.49642 | 9.54370 | 23949 ft | 178 kts | 273° |
| 2026-04-22 04:01 | 40.49659 | 9.52741 | 24200 ft | 179 kts | 274° |
| 2026-04-22 04:01 | 40.49704 | 9.51108 | 24420 ft | 179 kts | 275° |
| 2026-04-22 04:01 | 40.49770 | 9.49476 | 24660 ft | 179 kts | 276° |
| 2026-04-22 04:01 | 40.49849 | 9.47843 | 24887 ft | 180 kts | 276° |
| 2026-04-22 04:02 | 40.49935 | 9.46202 | 25119 ft | 180 kts | 276° |
| 2026-04-22 04:02 | 40.50022 | 9.44559 | 25346 ft | 181 kts | 276° |
| 2026-04-22 04:02 | 40.50109 | 9.42906 | 25567 ft | 181 kts | 276° |
| 2026-04-22 04:02 | 40.50197 | 9.41251 | 25788 ft | 182 kts | 276° |
| 2026-04-22 04:03 | 40.50285 | 9.39588 | 26000 ft | 182 kts | 276° |
| 2026-04-22 04:03 | 40.50373 | 9.37922 | 26211 ft | 183 kts | 276° |
| 2026-04-22 04:03 | 40.50460 | 9.36250 | 26406 ft | 184 kts | 276° |
| 2026-04-22 04:03 | 40.50547 | 9.34573 | 26616 ft | 184 kts | 276° |
| 2026-04-22 04:04 | 40.50633 | 9.32913 | 26830 ft | 185 kts | 276° |
| 2026-04-22 04:04 | 40.50801 | 9.31243 | 27041 ft | 184 kts | 285° |
| 2026-04-22 04:04 | 40.51203 | 9.29648 | 27271 ft | 184 kts | 289° |
| 2026-04-22 04:04 | 40.51617 | 9.28053 | 27490 ft | 184 kts | 289° |
| 2026-04-22 04:05 | 40.52025 | 9.26453 | 27711 ft | 185 kts | 289° |
| 2026-04-22 04:05 | 40.52434 | 9.24850 | 27929 ft | 186 kts | 289° |
| 2026-04-22 04:05 | 40.52846 | 9.23239 | 28149 ft | 186 kts | 289° |
| 2026-04-22 04:05 | 40.53259 | 9.21624 | 28353 ft | 187 kts | 289° |
| 2026-04-22 04:06 | 40.53673 | 9.20001 | 28557 ft | 187 kts | 289° |
| 2026-04-22 04:06 | 40.54090 | 9.18373 | 28772 ft | 188 kts | 289° |
| 2026-04-22 04:06 | 40.54507 | 9.16742 | 28966 ft | 189 kts | 289° |
| 2026-04-22 04:06 | 40.54926 | 9.15103 | 29160 ft | 189 kts | 289° |
| 2026-04-22 04:07 | 40.55345 | 9.13461 | 29350 ft | 191 kts | 289° |
| 2026-04-22 04:07 | 40.55774 | 9.11787 | 29314 ft | 202 kts | 289° |
| 2026-04-22 04:07 | 40.56239 | 9.09990 | 29239 ft | 213 kts | 289° |
| 2026-04-22 04:07 | 40.56727 | 9.08093 | 29126 ft | 225 kts | 289° |
| 2026-04-22 04:08 | 40.57240 | 9.06086 | 29004 ft | 236 kts | 289° |
| 2026-04-22 04:08 | 40.57767 | 9.04009 | 29005 ft | 242 kts | 289° |
| 2026-04-22 04:08 | 40.58307 | 9.01885 | 28996 ft | 247 kts | 289° |
| 2026-04-22 04:08 | 40.58858 | 8.99721 | 28990 ft | 251 kts | 289° |
| 2026-04-22 04:09 | 40.59310 | 8.97487 | 28987 ft | 256 kts | 279° |
| 2026-04-22 04:09 | 40.59233 | 8.95123 | 28993 ft | 263 kts | 262° |
| 2026-04-22 04:09 | 40.58740 | 8.92783 | 28985 ft | 267 kts | 258° |
| 2026-04-22 04:09 | 40.58227 | 8.90430 | 28981 ft | 269 kts | 258° |
| 2026-04-22 04:10 | 40.57713 | 8.88059 | 28974 ft | 270 kts | 258° |
| 2026-04-22 04:10 | 40.57198 | 8.85678 | 28967 ft | 271 kts | 258° |
| 2026-04-22 04:10 | 40.56680 | 8.83287 | 28970 ft | 272 kts | 258° |
| 2026-04-22 04:10 | 40.56161 | 8.80884 | 28974 ft | 273 kts | 258° |
| 2026-04-22 04:11 | 40.55642 | 8.78476 | 28970 ft | 274 kts | 258° |
| 2026-04-22 04:11 | 40.55120 | 8.76064 | 28969 ft | 275 kts | 258° |
| 2026-04-22 04:11 | 40.54597 | 8.73645 | 28963 ft | 275 kts | 258° |
| 2026-04-22 04:11 | 40.54082 | 8.71259 | 28972 ft | 275 kts | 258° |
| 2026-04-22 04:12 | 40.53551 | 8.68805 | 28967 ft | 276 kts | 258° |
| 2026-04-22 04:12 | 40.53025 | 8.66377 | 28969 ft | 276 kts | 258° |
| 2026-04-22 04:12 | 40.52499 | 8.63949 | 28962 ft | 276 kts | 258° |
| 2026-04-22 04:12 | 40.51972 | 8.61521 | 28965 ft | 276 kts | 258° |
| 2026-04-22 04:13 | 40.51452 | 8.59127 | 28966 ft | 276 kts | 258° |
| 2026-04-22 04:13 | 40.50922 | 8.56696 | 28966 ft | 277 kts | 258° |
| 2026-04-22 04:13 | 40.50394 | 8.54269 | 28959 ft | 277 kts | 258° |
| 2026-04-22 04:13 | 40.49864 | 8.51838 | 28965 ft | 277 kts | 258° |
| 2026-04-22 04:14 | 40.49334 | 8.49411 | 28962 ft | 276 kts | 258° |
| 2026-04-22 04:14 | 40.48804 | 8.46984 | 28956 ft | 276 kts | 258° |
| 2026-04-22 04:14 | 40.48273 | 8.44559 | 28955 ft | 276 kts | 258° |
| 2026-04-22 04:14 | 40.47742 | 8.42136 | 28973 ft | 276 kts | 258° |
| 2026-04-22 04:15 | 40.47211 | 8.39714 | 28961 ft | 276 kts | 258° |
| 2026-04-22 04:15 | 40.46679 | 8.37289 | 28966 ft | 276 kts | 258° |
| 2026-04-22 04:15 | 40.46146 | 8.34864 | 28963 ft | 276 kts | 258° |
| 2026-04-22 04:15 | 40.45614 | 8.32441 | 28954 ft | 276 kts | 258° |
| 2026-04-22 04:16 | 40.45081 | 8.30018 | 28955 ft | 276 kts | 258° |
| 2026-04-22 04:16 | 40.44030 | 8.25177 | 28952 ft | 275 kts | 260° |
| 2026-04-22 04:16 | 40.43692 | 8.22723 | 28948 ft | 272 kts | 267° |
| 2026-04-22 04:17 | 40.43572 | 8.20249 | 28952 ft | 271 kts | 269° |
| 2026-04-22 04:17 | 40.43443 | 8.17780 | 28952 ft | 271 kts | 269° |
| 2026-04-22 04:17 | 40.43300 | 8.15309 | 28952 ft | 271 kts | 268° |
| 2026-04-22 04:17 | 40.43155 | 8.12841 | 28951 ft | 271 kts | 268° |
| 2026-04-22 04:18 | 40.43011 | 8.10373 | 28951 ft | 271 kts | 269° |
| 2026-04-22 04:18 | 40.42870 | 8.07906 | 28951 ft | 271 kts | 269° |
| 2026-04-22 04:18 | 40.42730 | 8.05437 | 28949 ft | 271 kts | 269° |
| 2026-04-22 04:18 | 40.42591 | 8.02971 | 28950 ft | 271 kts | 269° |
| 2026-04-22 04:19 | 40.42431 | 8.00505 | 28953 ft | 272 kts | 267° |
| 2026-04-22 04:19 | 40.42183 | 7.98046 | 28955 ft | 272 kts | 264° |
| 2026-04-22 04:19 | 40.41874 | 7.95595 | 28944 ft | 272 kts | 264° |
| 2026-04-22 04:19 | 40.41564 | 7.93141 | 28947 ft | 272 kts | 264° |
| 2026-04-22 04:20 | 40.41255 | 7.90691 | 28941 ft | 272 kts | 264° |
| 2026-04-22 04:20 | 40.40947 | 7.88243 | 28953 ft | 272 kts | 264° |
| 2026-04-22 04:20 | 40.40637 | 7.85792 | 28945 ft | 272 kts | 264° |
| 2026-04-22 04:20 | 40.40328 | 7.83342 | 28957 ft | 272 kts | 264° |
| 2026-04-22 04:21 | 40.40017 | 7.80894 | 28942 ft | 272 kts | 264° |
| 2026-04-22 04:21 | 40.39707 | 7.78447 | 28951 ft | 272 kts | 264° |
| 2026-04-22 04:21 | 40.39395 | 7.75998 | 28945 ft | 272 kts | 264° |
| 2026-04-22 04:21 | 40.39084 | 7.73552 | 28945 ft | 272 kts | 264° |
| 2026-04-22 04:22 | 40.38772 | 7.71106 | 28949 ft | 272 kts | 264° |
| 2026-04-22 04:22 | 40.38459 | 7.68659 | 28948 ft | 272 kts | 264° |
| 2026-04-22 04:22 | 40.38146 | 7.66216 | 28948 ft | 272 kts | 264° |
| 2026-04-22 04:22 | 40.37833 | 7.63771 | 28953 ft | 272 kts | 264° |
| 2026-04-22 04:23 | 40.37518 | 7.61326 | 28952 ft | 272 kts | 264° |
| 2026-04-22 04:23 | 40.37204 | 7.58881 | 28950 ft | 272 kts | 264° |
| 2026-04-22 04:23 | 40.36889 | 7.56438 | 28944 ft | 272 kts | 264° |
| 2026-04-22 04:23 | 40.36573 | 7.53996 | 28945 ft | 272 kts | 264° |
| 2026-04-22 04:24 | 40.36257 | 7.51551 | 28946 ft | 272 kts | 264° |
| 2026-04-22 04:24 | 40.35940 | 7.49108 | 28946 ft | 272 kts | 264° |
| 2026-04-22 04:24 | 40.35623 | 7.46665 | 28948 ft | 272 kts | 264° |
| 2026-04-22 04:24 | 40.35305 | 7.44222 | 28946 ft | 272 kts | 264° |
| 2026-04-22 04:25 | 40.34987 | 7.41779 | 28957 ft | 272 kts | 264° |
| 2026-04-22 04:25 | 40.34668 | 7.39336 | 28954 ft | 272 kts | 263° |
| 2026-04-22 04:25 | 40.34349 | 7.36894 | 28947 ft | 272 kts | 263° |
| 2026-04-22 04:25 | 40.34028 | 7.34453 | 28948 ft | 272 kts | 263° |
| 2026-04-22 04:26 | 40.33707 | 7.32009 | 28947 ft | 272 kts | 263° |
| 2026-04-22 04:26 | 40.33386 | 7.29569 | 28953 ft | 272 kts | 263° |
| 2026-04-22 04:26 | 40.33064 | 7.27126 | 28949 ft | 272 kts | 263° |
| 2026-04-22 04:26 | 40.32746 | 7.24718 | 28952 ft | 272 kts | 263° |
| 2026-04-22 04:27 | 40.32421 | 7.22278 | 28958 ft | 272 kts | 263° |
| 2026-04-22 04:27 | 40.32096 | 7.19839 | 28952 ft | 272 kts | 263° |
| 2026-04-22 04:27 | 40.31772 | 7.17398 | 28950 ft | 272 kts | 263° |
| 2026-04-22 04:27 | 40.31448 | 7.14961 | 28951 ft | 272 kts | 263° |
| 2026-04-22 04:28 | 40.31124 | 7.12520 | 28949 ft | 272 kts | 263° |
| 2026-04-22 04:28 | 40.30799 | 7.10083 | 28954 ft | 272 kts | 263° |
| 2026-04-22 04:28 | 40.30474 | 7.07646 | 28954 ft | 272 kts | 263° |
| 2026-04-22 04:28 | 40.30148 | 7.05207 | 28954 ft | 272 kts | 263° |
| 2026-04-22 04:29 | 40.29822 | 7.02771 | 28953 ft | 272 kts | 263° |
| 2026-04-22 04:29 | 40.29495 | 7.00335 | 28953 ft | 272 kts | 263° |
| 2026-04-22 04:29 | 40.29168 | 6.97897 | 28953 ft | 272 kts | 263° |
| 2026-04-22 04:29 | 40.28840 | 6.95460 | 28956 ft | 272 kts | 263° |
| 2026-04-22 04:30 | 40.28512 | 6.93025 | 28952 ft | 272 kts | 263° |
| 2026-04-22 04:30 | 40.28183 | 6.90590 | 28955 ft | 272 kts | 263° |
| 2026-04-22 04:30 | 40.27854 | 6.88152 | 28955 ft | 272 kts | 263° |
| 2026-04-22 04:30 | 40.27524 | 6.85717 | 28953 ft | 272 kts | 263° |
| 2026-04-22 04:31 | 40.27194 | 6.83282 | 28955 ft | 272 kts | 263° |
| 2026-04-22 04:31 | 40.26863 | 6.80847 | 28954 ft | 272 kts | 263° |
| 2026-04-22 04:31 | 40.26531 | 6.78412 | 28952 ft | 272 kts | 263° |
| 2026-04-22 04:31 | 40.26200 | 6.75980 | 28954 ft | 272 kts | 263° |
| 2026-04-22 04:32 | 40.25868 | 6.73546 | 28951 ft | 272 kts | 263° |
| 2026-04-22 04:32 | 40.25534 | 6.71111 | 28952 ft | 272 kts | 263° |
| 2026-04-22 04:32 | 40.25201 | 6.68679 | 28951 ft | 272 kts | 263° |
| 2026-04-22 04:32 | 40.24867 | 6.66244 | 28955 ft | 272 kts | 263° |
| 2026-04-22 04:33 | 40.24533 | 6.63813 | 28952 ft | 272 kts | 263° |
| 2026-04-22 04:33 | 40.24198 | 6.61379 | 28955 ft | 272 kts | 262° |
| 2026-04-22 04:33 | 40.23862 | 6.58947 | 28955 ft | 272 kts | 263° |
| 2026-04-22 04:33 | 40.23527 | 6.56516 | 28954 ft | 272 kts | 262° |
| 2026-04-22 04:34 | 40.23190 | 6.54084 | 28955 ft | 272 kts | 262° |
| 2026-04-22 04:34 | 40.22853 | 6.51653 | 28955 ft | 272 kts | 262° |
| 2026-04-22 04:34 | 40.22516 | 6.49221 | 28953 ft | 272 kts | 262° |
| 2026-04-22 04:34 | 40.22178 | 6.46790 | 28953 ft | 272 kts | 262° |
| 2026-04-22 04:35 | 40.21840 | 6.44362 | 28953 ft | 272 kts | 262° |
| 2026-04-22 04:35 | 40.21501 | 6.41930 | 28956 ft | 272 kts | 262° |
| 2026-04-22 04:35 | 40.21161 | 6.39499 | 28955 ft | 272 kts | 262° |
| 2026-04-22 04:35 | 40.20826 | 6.37102 | 28953 ft | 272 kts | 262° |
| 2026-04-22 04:36 | 40.20482 | 6.34640 | 28952 ft | 272 kts | 262° |
| 2026-04-22 04:36 | 40.20147 | 6.32245 | 28953 ft | 272 kts | 262° |
| 2026-04-22 04:36 | 40.19806 | 6.29815 | 28954 ft | 272 kts | 262° |
| 2026-04-22 04:36 | 40.19464 | 6.27385 | 28957 ft | 272 kts | 262° |
| 2026-04-22 04:37 | 40.19122 | 6.24958 | 28956 ft | 272 kts | 262° |
| 2026-04-22 04:37 | 40.18779 | 6.22528 | 28955 ft | 272 kts | 262° |
| 2026-04-22 04:37 | 40.18436 | 6.20099 | 28949 ft | 272 kts | 262° |
| 2026-04-22 04:37 | 40.18092 | 6.17669 | 28952 ft | 272 kts | 262° |
| 2026-04-22 04:38 | 40.17747 | 6.15241 | 28950 ft | 272 kts | 262° |
| 2026-04-22 04:38 | 40.17402 | 6.12811 | 28955 ft | 272 kts | 262° |
| 2026-04-22 04:38 | 40.17057 | 6.10381 | 28954 ft | 272 kts | 262° |
| 2026-04-22 04:38 | 40.16711 | 6.07951 | 28956 ft | 272 kts | 262° |
| 2026-04-22 04:39 | 40.16365 | 6.05523 | 28954 ft | 272 kts | 262° |
| 2026-04-22 04:39 | 40.16017 | 6.03092 | 28954 ft | 272 kts | 262° |
| 2026-04-22 04:39 | 40.15670 | 6.00663 | 28954 ft | 272 kts | 262° |
| 2026-04-22 04:39 | 40.15321 | 5.98234 | 28956 ft | 272 kts | 262° |
| 2026-04-22 04:40 | 40.14972 | 5.95804 | 28951 ft | 272 kts | 262° |
| 2026-04-22 04:40 | 40.14623 | 5.93372 | 28951 ft | 272 kts | 262° |
| 2026-04-22 04:40 | 40.14386 | 5.91732 | 28953 ft | 272 kts | 262° |
| 2026-04-22 04:40 | 40.14036 | 5.89301 | 28952 ft | 272 kts | 262° |
| 2026-04-22 04:41 | 40.13685 | 5.86871 | 28950 ft | 272 kts | 262° |
| 2026-04-22 04:41 | 40.13334 | 5.84438 | 28892 ft | 274 kts | 262° |
| 2026-04-22 04:41 | 40.12983 | 5.81941 | 28513 ft | 285 kts | 262° |
| 2026-04-22 04:41 | 40.12622 | 5.79347 | 28085 ft | 295 kts | 262° |
| 2026-04-22 04:42 | 40.12252 | 5.76689 | 27667 ft | 298 kts | 262° |
| 2026-04-22 04:42 | 40.11877 | 5.74016 | 27246 ft | 300 kts | 262° |
| 2026-04-22 04:42 | 40.11500 | 5.71332 | 26834 ft | 301 kts | 262° |
| 2026-04-22 04:42 | 40.11120 | 5.68640 | 26430 ft | 302 kts | 262° |
| 2026-04-22 04:43 | 40.10739 | 5.65934 | 26026 ft | 303 kts | 262° |
| 2026-04-22 04:43 | 40.10357 | 5.63220 | 25636 ft | 305 kts | 262° |
| 2026-04-22 04:43 | 40.09972 | 5.60493 | 25247 ft | 306 kts | 262° |
| 2026-04-22 04:43 | 40.09584 | 5.57757 | 24863 ft | 307 kts | 262° |
| 2026-04-22 04:44 | 40.09198 | 5.55046 | 24489 ft | 308 kts | 262° |
| 2026-04-22 04:44 | 40.08800 | 5.52252 | 24112 ft | 309 kts | 262° |
| 2026-04-22 04:44 | 40.08410 | 5.49489 | 23744 ft | 310 kts | 262° |
| 2026-04-22 04:44 | 40.08021 | 5.46751 | 23347 ft | 311 kts | 262° |
| 2026-04-22 04:45 | 40.07622 | 5.43966 | 22913 ft | 313 kts | 262° |
| 2026-04-22 04:45 | 40.07220 | 5.41176 | 22486 ft | 313 kts | 261° |
| 2026-04-22 04:45 | 40.06817 | 5.38386 | 22062 ft | 313 kts | 261° |
| 2026-04-22 04:45 | 40.06414 | 5.35598 | 21646 ft | 312 kts | 261° |
| 2026-04-22 04:46 | 40.06010 | 5.32817 | 21233 ft | 311 kts | 261° |
| 2026-04-22 04:46 | 40.05607 | 5.30044 | 20829 ft | 310 kts | 261° |
| 2026-04-22 04:46 | 40.05206 | 5.27284 | 20429 ft | 309 kts | 261° |
| 2026-04-22 04:46 | 40.04806 | 5.24530 | 20032 ft | 308 kts | 261° |
| 2026-04-22 04:47 | 40.04406 | 5.21789 | 19643 ft | 307 kts | 261° |
| 2026-04-22 04:47 | 40.04006 | 5.19056 | 19256 ft | 306 kts | 261° |
| 2026-04-22 04:47 | 40.03608 | 5.16335 | 18877 ft | 305 kts | 261° |
| 2026-04-22 04:47 | 40.03210 | 5.13625 | 18499 ft | 304 kts | 261° |
| 2026-04-22 04:48 | 40.02813 | 5.10923 | 18109 ft | 303 kts | 261° |
| 2026-04-22 04:48 | 40.02415 | 5.08234 | 17683 ft | 301 kts | 261° |
| 2026-04-22 04:48 | 40.02017 | 5.05556 | 17265 ft | 300 kts | 261° |
| 2026-04-22 04:48 | 40.01624 | 5.02894 | 16846 ft | 298 kts | 260° |
| 2026-04-22 04:49 | 40.01231 | 5.00248 | 16436 ft | 296 kts | 260° |
| 2026-04-22 04:49 | 40.00841 | 4.97616 | 16024 ft | 295 kts | 260° |
| 2026-04-22 04:49 | 40.00452 | 4.95001 | 15633 ft | 293 kts | 260° |
| 2026-04-22 04:49 | 40.00065 | 4.92402 | 15238 ft | 291 kts | 260° |
| 2026-04-22 04:50 | 39.99681 | 4.89820 | 14854 ft | 289 kts | 260° |
| 2026-04-22 04:50 | 39.99298 | 4.87255 | 14468 ft | 288 kts | 260° |
| 2026-04-22 04:50 | 39.98918 | 4.84702 | 14087 ft | 286 kts | 260° |
| 2026-04-22 04:50 | 39.98548 | 4.82173 | 13746 ft | 280 kts | 260° |
| 2026-04-22 04:51 | 39.98193 | 4.79714 | 13478 ft | 272 kts | 260° |
| 2026-04-22 04:51 | 39.97835 | 4.77313 | 13214 ft | 267 kts | 259° |
| 2026-04-22 04:51 | 39.97442 | 4.74961 | 12952 ft | 264 kts | 257° |
| 2026-04-22 04:51 | 39.96952 | 4.72665 | 12691 ft | 262 kts | 255° |
| 2026-04-22 04:52 | 39.96458 | 4.70388 | 12434 ft | 260 kts | 256° |
| 2026-04-22 04:52 | 39.95974 | 4.68122 | 12177 ft | 259 kts | 256° |
| 2026-04-22 04:52 | 39.95500 | 4.65862 | 11922 ft | 258 kts | 256° |
| 2026-04-22 04:52 | 39.95033 | 4.63609 | 11674 ft | 257 kts | 256° |
| 2026-04-22 04:53 | 39.94568 | 4.61353 | 11332 ft | 259 kts | 256° |
| 2026-04-22 04:53 | 39.94110 | 4.59089 | 10942 ft | 258 kts | 257° |
| 2026-04-22 04:53 | 39.93649 | 4.56833 | 10549 ft | 257 kts | 257° |
| 2026-04-22 04:53 | 39.93187 | 4.54585 | 10169 ft | 256 kts | 257° |
| 2026-04-22 04:54 | 39.92759 | 4.52337 | 9784 ft | 254 kts | 263° |
| 2026-04-22 04:54 | 39.92936 | 4.50090 | 9352 ft | 251 kts | 292° |
| 2026-04-22 04:54 | 39.93929 | 4.48260 | 8934 ft | 249 kts | 319° |
| 2026-04-22 04:54 | 39.95430 | 4.47157 | 8530 ft | 249 kts | 336° |
| 2026-04-22 04:55 | 39.96982 | 4.46177 | 8129 ft | 247 kts | 330° |
| 2026-04-22 04:55 | 39.98439 | 4.44996 | 7736 ft | 246 kts | 325° |
| 2026-04-22 04:55 | 39.99814 | 4.43684 | 7350 ft | 244 kts | 321° |
| 2026-04-22 04:55 | 40.01103 | 4.42248 | 6963 ft | 243 kts | 317° |
| 2026-04-22 04:56 | 40.02297 | 4.40692 | 6583 ft | 242 kts | 313° |
| 2026-04-22 04:56 | 40.03392 | 4.39030 | 6196 ft | 241 kts | 308° |
| 2026-04-22 04:56 | 40.04373 | 4.37272 | 5795 ft | 236 kts | 304° |
| 2026-04-22 04:56 | 40.05223 | 4.35513 | 5398 ft | 223 kts | 300° |
| 2026-04-22 04:57 | 40.05930 | 4.33766 | 5006 ft | 213 kts | 296° |
| 2026-04-22 04:57 | 40.06510 | 4.32022 | 4671 ft | 207 kts | 291° |
| 2026-04-22 04:57 | 40.06984 | 4.30240 | 4374 ft | 209 kts | 288° |
| 2026-04-22 04:57 | 40.07378 | 4.28399 | 4069 ft | 211 kts | 284° |
| 2026-04-22 04:58 | 40.07646 | 4.26513 | 3774 ft | 212 kts | 272° |
| 2026-04-22 04:58 | 40.07156 | 4.24731 | 3474 ft | 215 kts | 229° |
| 2026-04-22 04:58 | 40.05839 | 4.23862 | 3135 ft | 219 kts | 186° |
| 2026-04-22 04:58 | 40.04396 | 4.24356 | 2740 ft | 215 kts | 146° |
| 2026-04-22 04:59 | 40.03258 | 4.25521 | 2350 ft | 202 kts | 147° |
| 2026-04-22 04:59 | 40.01974 | 4.25877 | 2099 ft | 186 kts | 191° |
| 2026-04-22 04:59 | 40.00772 | 4.25512 | 1998 ft | 170 kts | 194° |
| 2026-04-22 04:59 | 39.99670 | 4.25151 | 1947 ft | 161 kts | 195° |
| 2026-04-22 05:00 | 39.98601 | 4.24787 | 1921 ft | 157 kts | 195° |
| 2026-04-22 05:00 | 39.97563 | 4.24426 | 1908 ft | 147 kts | 196° |
| 2026-04-22 05:00 | 39.96684 | 4.24116 | 1886 ft | 116 kts | 195° |
| 2026-04-22 05:00 | 39.95987 | 4.23896 | 1890 ft | 95 kts | 192° |
| 2026-04-22 05:01 | 39.95335 | 4.23734 | 1894 ft | 96 kts | 191° |
| 2026-04-22 05:01 | 39.94658 | 4.23574 | 1809 ft | 103 kts | 192° |
| 2026-04-22 05:01 | 39.93950 | 4.23416 | 1670 ft | 103 kts | 189° |
| 2026-04-22 05:01 | 39.93239 | 4.23288 | 1526 ft | 103 kts | 188° |
| 2026-04-22 05:02 | 39.92528 | 4.23163 | 1388 ft | 103 kts | 188° |
| 2026-04-22 05:02 | 39.91820 | 4.23040 | 1250 ft | 102 kts | 191° |
| 2026-04-22 05:02 | 39.91122 | 4.22864 | 1113 ft | 102 kts | 192° |
| 2026-04-22 05:02 | 39.90425 | 4.22711 | 976 ft | 102 kts | 188° |
| 2026-04-22 05:03 | 39.89727 | 4.22581 | 838 ft | 101 kts | 189° |
| 2026-04-22 05:03 | 39.89032 | 4.22423 | 698 ft | 101 kts | 189° |
| 2026-04-22 05:03 | 39.88363 | 4.22291 | 569 ft | 93 kts | 186° |
| 2026-04-22 05:03 | 39.87738 | 4.22170 | 459 ft | 91 kts | 187° |
| 2026-04-22 05:04 | 39.87128 | 4.22046 | 334 ft | 85 kts | 188° |
| 2026-04-22 05:04 | 39.86621 | 4.21941 | 295 ft | 63 kts | 189° |
| 2026-04-22 05:04 | 39.86250 | 4.21864 | 294 ft | 41 kts | 189° |
| 2026-04-22 05:04 | 39.86045 | 4.21823 | 292 ft | 23 kts | 188° |
| 2026-04-22 05:05 | 39.85856 | 4.21784 | 293 ft | 27 kts | 189° |
| 2026-04-22 05:05 | 39.85724 | 4.21757 | 291 ft | 14 kts | 188° |
| 2026-04-22 05:05 | 39.85633 | 4.21754 | 293 ft | 14 kts | 174° |
| 2026-04-22 05:05 | 39.85512 | 4.21795 | 286 ft | 19 kts | 156° |
| 2026-04-22 05:06 | 39.85419 | 4.21842 | 285 ft | 9 kts | 152° |
| 2026-04-22 05:06 | 39.85401 | 4.21892 | 285 ft | 7 kts | 71° |
| 2026-04-22 05:06 | 39.85448 | 4.21931 | 286 ft | 11 kts | 11° |
| 2026-04-22 05:06 | 39.85543 | 4.21956 | 287 ft | 17 kts | 8° |
| 2026-04-22 05:07 | 39.85646 | 4.21977 | 288 ft | 13 kts | 9° |
| 2026-04-22 05:07 | 39.85720 | 4.21993 | 289 ft | 9 kts | 9° |
| 2026-04-22 05:07 | 39.85786 | 4.22006 | 293 ft | 11 kts | 8° |
| 2026-04-22 05:07 | 39.85874 | 4.22024 | 290 ft | 15 kts | 8° |
| 2026-04-22 05:08 | 39.85985 | 4.22047 | 291 ft | 15 kts | 14° |
| 2026-04-22 05:08 | 39.86049 | 4.22061 | 293 ft | 13 kts | 8° |
| 2026-04-22 05:08 | 39.86153 | 4.22079 | 292 ft | 9 kts | 9° |
| 2026-04-22 05:08 | 39.86195 | 4.22122 | 296 ft | 7 kts | 83° |
| 2026-04-22 05:09 | 39.86185 | 4.22198 | 293 ft | 10 kts | 99° |
| 2026-04-22 05:09 | 39.86176 | 4.22271 | 294 ft | 6 kts | 98° |
| 2026-04-22 05:09 | 39.86141 | 4.22290 | 293 ft | 8 kts | 192° |
| 2026-04-22 05:09 | 39.86081 | 4.22270 | 292 ft | 9 kts | 237° |
| 2026-04-22 05:10 | 39.86085 | 4.22231 | 292 ft | 1 kts | 327° |
| 2026-04-22 05:10 | 39.86100 | 4.22232 | 292 ft | 1 kts | 19° |
| 2026-04-22 05:10 | 39.86112 | 4.22237 | 292 ft | 0 kts | 10° |
| 2026-04-22 05:10 | 39.86121 | 4.22239 | 292 ft | 3 kts | 9° |
| 2026-04-22 05:11 | 39.86123 | 4.22239 | 293 ft | 0 kts | 15° |